• Join FlightAware (Why Join?)
  • Login
  • US Flag 
02:19AM EDT


 

Airport Tracker/Info


-or-


 

Live Flight TrackerFlight Track Log ✈ UPS1219 ✈ 15-Nov-2013 ✈ KIAD - KSDF

Flight Track Log - Related Links

Times and Time Zones

All times are in EST time to prevent confusion due to time zone crossing. See the UPS1219 flight status page for this flight to view local times or setup timezone preferences in your user account.

Time Position Orientation Groundspeed Altitude Reporting Facility
EST Latitude Longitude Course Direction KTS MPH feet Rate Location/Type
11:00PM 38.9380 -77.5060 237° Southwest 174 200 2,000  Level FlightAware
11:00PM 38.9250 -77.5320 237° Southwest 237 273 2,600 2,640 Climbing FlightAware
11:01PM 38.9100 -77.5640 239° Southwest 253 291 4,200 4,260 Climbing FlightAware
11:01PM 38.8970 -77.5950 242° Southwest 252 290 6,100 4,440 Climbing FlightAware
11:02PM 38.8940 -77.6180 260° West 260 299 7,100 4,260 Climbing FlightAware
11:02PM 38.8910 -77.6660 265° West 262 302 9,400 3,960 Climbing FlightAware
11:02PM 38.8891 -77.7028 266° West 270 311 10,700 2,220 Climbing FlightAware ADS-B (KWWD)
11:03PM 38.8841 -77.7728 265° West 324 373 11,700 2,520 Climbing FlightAware ADS-B (KWWD)
11:04PM 38.8794 -77.8595 266° West 353 406 14,100 3,480 Climbing FlightAware ADS-B (KWWD)
11:05PM 38.8730 -77.9590 265° West 359 413 16,900 3,120 Climbing FlightAware
11:06PM 38.8640 -78.0850 265° West 375 432 19,600 2,520 Climbing FlightAware
11:06PM 38.8570 -78.1950 265° West 398 458 21,400 2,220 Climbing FlightAware
11:07PM 38.8540 -78.2810 267° West 409 471 22,800 2,340 Climbing FlightAware
11:08PM 38.8430 -78.3980 263° West 415 478 24,700 2,640 Climbing FlightAware
11:08PM 38.8240 -78.5040 257° West 408 470 26,900 2,460 Climbing FlightAware
11:09PM 38.8030 -78.6120 256° West 412 474 28,500 2,100 Climbing FlightAware
11:10PM 38.7870 -78.6970 256° West 401 461 30,300 2,640 Climbing FlightAware
11:11PM 38.7690 -78.7960 257° West 397 457 32,000 2,160 Climbing FlightAware
11:11PM 38.7450 -78.9200 256° West 401 461 33,400 1,620 Climbing FlightAware
11:12PM 38.7190 -79.0570 256° West 395 455 35,200 1,380 Climbing FlightAware
11:13PM 38.6980 -79.1650 256° West 399 459 36,000 420 Climbing FlightAware
11:14PM 38.6720 -79.2990 256° West 396 456 36,000  Level FlightAware
11:15PM 38.6480 -79.4230 256° West 392 451 36,000  Level FlightAware
11:16PM 38.6370 -79.4820 257° West 389 448 36,000  Level FlightAware
11:16PM 38.6180 -79.5760 256° West 389 448 36,000  Level FlightAware
11:17PM 38.6076 -79.6318 257° West 389 448 36,000  Level FlightAware ADS-B (KWWD)
11:17PM 38.5937 -79.7029 256° West 390 449 36,000  Level FlightAware ADS-B (KWWD)
11:18PM 38.5732 -79.8057 256° West 391 450 36,000  Level FlightAware ADS-B (KWWD)
11:19PM 38.5430 -79.9590 256° West 389 448 36,000  Level FlightAware
11:20PM 38.5310 -80.0150 255° West 389 448 36,000  Level FlightAware
11:20PM 38.5180 -80.0840 256° West 388 447 36,000  Level FlightAware
11:21PM 38.5070 -80.1360 255° West 388 447 36,000  Level FlightAware
11:21PM 38.4810 -80.2650 256° West 389 448 36,000  Level FlightAware
11:22PM 38.4600 -80.3680 255° West 389 448 36,000  Level FlightAware
11:23PM 38.4330 -80.5020 256° West 392 451 36,000  Level FlightAware
11:24PM 38.4230 -80.5480 255° West 392 451 36,000  Level FlightAware
11:25PM 38.4040 -80.6390 255° West 392 451 36,000  Level FlightAware
11:25PM 38.3760 -80.7790 256° West 387 445 36,000  Level FlightAware
11:26PM 38.3660 -80.8260 255° West 387 445 36,000  Level FlightAware
11:27PM 38.3420 -80.9380 255° West 387 445 36,000  Level FlightAware
11:28PM 38.3140 -81.0700 255° West 393 452 36,000  Level FlightAware
11:28PM 38.2900 -81.1870 255° West 386 444 36,000  Level FlightAware
11:29PM 38.2690 -81.2810 254° West 385 443 36,000  Level FlightAware
11:30PM 38.2490 -81.3790 255° West 390 449 36,000  Level FlightAware
11:31PM 38.2260 -81.4870 255° West 392 451 36,000  Level FlightAware
11:31PM 38.2050 -81.5850 255° West 392 451 36,000  Level FlightAware
11:32PM 38.1935 -81.6372 254° West 392 451 36,000  Level FlightAware ADS-B
11:32PM 38.1790 -81.7050 255° West 389 448 36,000  Level FlightAware
11:33PM 38.1639 -81.7732 254° West 390 449 36,000  Level FlightAware ADS-B
11:34PM 38.1350 -81.9300 257° West 391 450 36,000  Level FlightAware
11:35PM 38.1213 -82.0270 260° West 391 450 36,000  Level FlightAware ADS-B
11:35PM 38.1113 -82.0948 259° West 389 448 36,000  Level FlightAware ADS-B
11:36PM 38.1013 -82.1629 259° West 389 448 36,000  Level FlightAware ADS-B
11:36PM 38.0901 -82.2397 260° West 389 448 36,000  Level FlightAware ADS-B
11:37PM 38.0797 -82.3097 259° West 388 447 36,000  Level FlightAware ADS-B
11:37PM 38.0693 -82.3789 259° West 387 445 36,000  Level FlightAware ADS-B
11:38PM 38.0591 -82.4473 259° West 388 447 36,000  Level FlightAware ADS-B
11:38PM 38.0476 -82.5237 259° West 388 447 36,000 -300 Level FlightAware ADS-B
11:39PM 38.0370 -82.5935 259° West 388 447 35,700 -780 Descending FlightAware ADS-B
11:39PM 38.0266 -82.6625 259° West 383 441 35,200 -1,020 Descending FlightAware ADS-B
11:40PM 38.0165 -82.7291 259° West 378 435 34,700 -1,140 Descending FlightAware ADS-B
11:40PM 38.0065 -82.7943 259° West 377 434 34,100 -1,140 Descending FlightAware ADS-B
11:41PM 37.9965 -82.8598 259° West 375 432 33,600 -1,020 Descending FlightAware ADS-B
11:42PM 37.9800 -82.9700 259° West 378 435 32,800 -960 Descending FlightAware
11:43PM 37.9653 -83.0625 259° West 378 435 32,100 -660 Descending FlightAware ADS-B
11:43PM 37.9548 -83.1289 259° West 377 434 32,000 -120 Descending FlightAware ADS-B
11:44PM 37.9445 -83.1940 259° West 377 434 32,000  Level FlightAware ADS-B
11:44PM 37.9344 -83.2602 259° West 379 436 32,000  Level FlightAware ADS-B
11:45PM 37.9192 -83.3566 259° West 378 435 32,000  Level FlightAware ADS-B
11:45PM 37.9089 -83.4222 259° West 377 434 32,000  Level FlightAware ADS-B
11:46PM 37.8969 -83.4972 259° West 375 432 32,000  Level FlightAware ADS-B
11:47PM 37.8830 -83.5840 259° West 373 429 32,000 -360 Level FlightAware
11:47PM 37.8720 -83.6530 259° West 371 427 31,600 -900 Descending FlightAware
11:48PM 37.8541 -83.7619 258° West 369 425 30,800 -960 Descending FlightAware ADS-B
11:48PM 37.8437 -83.8275 259° West 376 433 30,300 -1,080 Descending FlightAware ADS-B
11:49PM 37.8329 -83.8942 258° West 382 440 29,700 -1,080 Descending FlightAware ADS-B
11:50PM 37.8163 -83.9957 258° West 390 449 29,000 -960 Descending FlightAware ADS-B
11:50PM 37.8051 -84.0627 258° West 391 450 28,500 -1,140 Descending FlightAware ADS-B
11:51PM 37.7938 -84.1312 258° West 392 451 27,900 -1,080 Descending FlightAware ADS-B
11:51PM 37.7817 -84.2045 258° West 397 457 27,400 -960 Descending FlightAware ADS-B
11:52PM 37.7700 -84.2740 258° West 401 461 26,900 -1,740 Descending FlightAware
11:53PM 37.7497 -84.3960 258° West 395 455 25,000 -2,640 Descending FlightAware ADS-B
11:53PM 37.7350 -84.4850 258° West 392 451 22,800 -3,300 Descending FlightAware
11:54PM 37.7200 -84.5750 258° West 395 455 20,600 -3,600 Descending FlightAware
11:55PM 37.7050 -84.6620 258° West 372 428 18,000 -3,900 Descending FlightAware
11:56PM 37.6870 -84.7660 258° West 360 414 14,800 -3,780 Descending FlightAware
11:56PM 37.6740 -84.8440 258° West 354 407 12,500 -3,420 Descending FlightAware
11:57PM 37.6610 -84.9270 259° West 343 395 10,300 -1,980 Descending FlightAware
11:58PM 37.6880 -85.0020 294° West 356 410 9,800 -480 Descending FlightAware
11:58PM 37.7160 -85.0390 314° West 358 412 9,800  Level FlightAware
11:58PM 37.7440 -85.0760 314° West 360 414 9,800  Level FlightAware
11:59PM 37.7660 -85.1070 312° West 361 415 9,800  Level FlightAware
11:59PM 37.7930 -85.1430 314° West 361 415 9,800  Level FlightAware
12:00AM 37.8260 -85.1890 312° West 360 414 9,800  Level FlightAware
12:00AM 37.8510 -85.2240 312° West 359 413 9,800  Level FlightAware
12:00AM 37.8760 -85.2580 313° West 358 412 9,800  Level FlightAware
12:01AM 37.9130 -85.3090 313° West 358 412 9,800  Level FlightAware
12:01AM 37.9470 -85.3570 312° West 358 412 9,800  Level FlightAware
12:02AM 37.9800 -85.4030 312° West 357 411 9,800  Level FlightAware
12:02AM 38.0010 -85.4320 313° West 358 412 9,800  Level FlightAware
12:03AM 38.0320 -85.4750 312° West 333 383 9,800 60 Level FlightAware
12:03AM 38.0610 -85.5170 311° West 284 327 9,900 -360 Climbing FlightAware
12:04AM 38.0790 -85.5410 314° West 267 307 9,500 -1,920 Descending FlightAware
12:04AM 38.0990 -85.5700 311° West 266 306 8,500 -2,520 Descending FlightAware
12:04AM 38.1250 -85.5890 330° Northwest 274 315 7,500 -2,160 Descending FlightAware
12:05AM 38.1530 -85.6020 340° North 268 308 6,800 -1,740 Descending FlightAware
12:05AM 38.1810 -85.6150 340° North 262 302 6,100 -1,020 Descending FlightAware
12:06AM 38.2170 -85.6300 342° North 247 284 5,900 -240 Descending FlightAware
12:06AM 38.2470 -85.6400 345° North 234 269 5,900  Level FlightAware
12:06AM 38.2680 -85.6470 345° North 231 266 5,900 -180 Level FlightAware
12:07AM 38.2920 -85.6560 344° North 228 262 5,800 -720 Descending FlightAware
12:07AM 38.3210 -85.6670 343° North 226 260 5,300 -1,020 Descending FlightAware
12:08AM 38.3410 -85.6740 345° North 222 255 5,000 -720 Descending FlightAware
12:08AM 38.3570 -85.6800 344° North 222 255 4,900 -300 Descending FlightAware
12:08AM 38.3800 -85.6880 345° North 224 258 4,800  Descending FlightAware
12:09AM 38.4150 -85.7010 344° North 217 250 4,900 60 Climbing FlightAware
12:09AM 38.4390 -85.7110 342° North 203 234 4,900  Level FlightAware
12:10AM 38.4480 -85.7340 297° West 177 204 4,900  Level FlightAware
12:10AM 38.4380 -85.7590 243° Southwest 172 198 4,900 -300 Level FlightAware
12:11AM 38.4290 -85.7770 237° Southwest 168 193 4,700 -960 Descending FlightAware
12:11AM 38.4120 -85.7960 221° Southwest 168 193 4,100 -840 Descending FlightAware
12:12AM 38.3850 -85.7980 183° South 172 198 3,800 -300 Descending FlightAware
12:12AM 38.3620 -85.7920 168° South 177 204 3,800 -360 Level FlightAware
12:13AM 38.3430 -85.7850 164° South 173 199 3,500 -840 Descending FlightAware
12:13AM 38.3230 -85.7780 165° South 159 183 3,100 -780 Descending FlightAware
12:13AM 38.3040 -85.7710 164° South 150 173 2,800 -780 Descending FlightAware
12:14AM 38.2860 -85.7650 165° South 136 157 2,400 -780 Descending FlightAware
12:14AM 38.2730 -85.7610 166° South 123 142 2,200 -720 Descending FlightAware
12:15AM 38.2620 -85.7570 164° South 104 120 1,900 -660 Descending FlightAware
12:15AM 38.2470 -85.7520 165° South 105 121 1,600 -540 Descending FlightAware
12:16AM 38.2340 -85.7470 163° South 107 123 1,400 -540 Descending FlightAware
12:16AM 38.2200 -85.7430 167° South 107 123 1,100 -600 Descending FlightAware
12:17AM 38.2040 -85.7370 164° South 111 128 800 -600 Descending FlightAware
12:17AM 38.1940 -85.7340 167° South 116 133 600 -600 Descending FlightAware
12:18AM 38.1780 -85.7280 164° South 86 99 -1,140 Descending FlightAware